sensor_id;sensor_type;location;lat;lon;timestamp;temperature;humidity
12948;DHT22;6539;49.476;8.484;2024-02-23T00:02:28;9.10;99.90
12948;DHT22;6539;49.476;8.484;2024-02-23T00:05:17;9.10;99.90
12948;DHT22;6539;49.476;8.484;2024-02-23T00:08:03;9.10;99.90
12948;DHT22;6539;49.476;8.484;2024-02-23T00:10:52;9.00;99.90
12948;DHT22;6539;49.476;8.484;2024-02-23T00:13:38;9.00;99.90
12948;DHT22;6539;49.476;8.484;2024-02-23T00:16:24;8.90;99.90
12948;DHT22;6539;49.476;8.484;2024-02-23T00:19:13;8.70;99.90
12948;DHT22;6539;49.476;8.484;2024-02-23T00:21:59;8.60;99.90
12948;DHT22;6539;49.476;8.484;2024-02-23T00:24:52;8.60;99.90
12948;DHT22;6539;49.476;8.484;2024-02-23T00:27:38;8.30;99.90
12948;DHT22;6539;49.476;8.484;2024-02-23T00:30:27;8.20;99.90
12948;DHT22;6539;49.476;8.484;2024-02-23T00:33:13;8.10;99.90
12948;DHT22;6539;49.476;8.484;2024-02-23T00:36:00;8.00;99.90
12948;DHT22;6539;49.476;8.484;2024-02-23T00:38:46;7.90;99.90
12948;DHT22;6539;49.476;8.484;2024-02-23T00:41:32;7.90;99.90
12948;DHT22;6539;49.476;8.484;2024-02-23T00:44:19;8.00;99.90
12948;DHT22;6539;49.476;8.484;2024-02-23T00:47:07;7.90;99.90
12948;DHT22;6539;49.476;8.484;2024-02-23T00:49:53;7.90;99.90
12948;DHT22;6539;49.476;8.484;2024-02-23T00:52:40;7.90;99.90
12948;DHT22;6539;49.476;8.484;2024-02-23T00:55:29;7.90;99.90
12948;DHT22;6539;49.476;8.484;2024-02-23T00:58:15;7.90;99.90
12948;DHT22;6539;49.476;8.484;2024-02-23T01:01:01;7.90;99.90
12948;DHT22;6539;49.476;8.484;2024-02-23T01:03:48;7.80;99.90
12948;DHT22;6539;49.476;8.484;2024-02-23T01:06:36;7.80;99.90
12948;DHT22;6539;49.476;8.484;2024-02-23T01:09:22;7.80;99.90
12948;DHT22;6539;49.476;8.484;2024-02-23T01:12:10;7.80;99.90
12948;DHT22;6539;49.476;8.484;2024-02-23T01:14:56;7.80;99.90
12948;DHT22;6539;49.476;8.484;2024-02-23T01:17:45;7.90;99.90
12948;DHT22;6539;49.476;8.484;2024-02-23T01:20:33;7.90;99.90
12948;DHT22;6539;49.476;8.484;2024-02-23T01:23:20;7.80;99.90
12948;DHT22;6539;49.476;8.484;2024-02-23T01:26:08;7.90;99.90
12948;DHT22;6539;49.476;8.484;2024-02-23T01:28:54;7.90;99.90
12948;DHT22;6539;49.476;8.484;2024-02-23T01:31:40;7.90;99.90
12948;DHT22;6539;49.476;8.484;2024-02-23T01:34:27;7.90;99.90
12948;DHT22;6539;49.476;8.484;2024-02-23T01:37:13;8.00;99.90
12948;DHT22;6539;49.476;8.484;2024-02-23T01:40:01;8.00;99.90
12948;DHT22;6539;49.476;8.484;2024-02-23T01:43:00;8.00;99.90
12948;DHT22;6539;49.476;8.484;2024-02-23T01:45:50;7.60;99.90
12948;DHT22;6539;49.476;8.484;2024-02-23T01:48:36;7.30;99.90
12948;DHT22;6539;49.476;8.484;2024-02-23T01:51:27;6.90;99.90
12948;DHT22;6539;49.476;8.484;2024-02-23T01:54:13;6.90;99.90
12948;DHT22;6539;49.476;8.484;2024-02-23T01:56:59;6.70;99.90
12948;DHT22;6539;49.476;8.484;2024-02-23T01:59:46;6.60;99.90
12948;DHT22;6539;49.476;8.484;2024-02-23T02:02:35;6.50;99.90
12948;DHT22;6539;49.476;8.484;2024-02-23T02:05:21;6.40;99.90
12948;DHT22;6539;49.476;8.484;2024-02-23T02:08:10;6.20;99.90
12948;DHT22;6539;49.476;8.484;2024-02-23T02:10:59;6.30;99.90
12948;DHT22;6539;49.476;8.484;2024-02-23T02:13:45;6.30;99.90
12948;DHT22;6539;49.476;8.484;2024-02-23T02:16:34;6.40;99.90
12948;DHT22;6539;49.476;8.484;2024-02-23T02:19:20;6.20;99.90
12948;DHT22;6539;49.476;8.484;2024-02-23T02:22:11;6.30;99.90
12948;DHT22;6539;49.476;8.484;2024-02-23T02:24:57;6.30;99.90
12948;DHT22;6539;49.476;8.484;2024-02-23T02:27:46;6.30;99.90
12948;DHT22;6539;49.476;8.484;2024-02-23T02:30:34;6.30;99.90
12948;DHT22;6539;49.476;8.484;2024-02-23T02:33:21;6.40;99.90
12948;DHT22;6539;49.476;8.484;2024-02-23T02:36:07;6.40;99.90
12948;DHT22;6539;49.476;8.484;2024-02-23T02:38:53;6.40;99.90
12948;DHT22;6539;49.476;8.484;2024-02-23T02:41:39;6.40;99.90
12948;DHT22;6539;49.476;8.484;2024-02-23T02:44:25;6.40;99.90
12948;DHT22;6539;49.476;8.484;2024-02-23T02:47:18;6.50;99.90
12948;DHT22;6539;49.476;8.484;2024-02-23T02:50:07;6.50;99.90
12948;DHT22;6539;49.476;8.484;2024-02-23T02:52:54;6.50;99.90
12948;DHT22;6539;49.476;8.484;2024-02-23T02:55:41;6.40;99.90
12948;DHT22;6539;49.476;8.484;2024-02-23T02:58:28;6.50;99.90
12948;DHT22;6539;49.476;8.484;2024-02-23T03:01:14;6.50;99.90
12948;DHT22;6539;49.476;8.484;2024-02-23T03:04:03;6.70;99.90
12948;DHT22;6539;49.476;8.484;2024-02-23T03:06:49;6.70;99.90
12948;DHT22;6539;49.476;8.484;2024-02-23T03:09:35;6.80;99.90
12948;DHT22;6539;49.476;8.484;2024-02-23T03:12:21;6.90;99.90
12948;DHT22;6539;49.476;8.484;2024-02-23T03:15:08;6.90;99.90
12948;DHT22;6539;49.476;8.484;2024-02-23T03:17:56;6.90;99.90
12948;DHT22;6539;49.476;8.484;2024-02-23T03:20:43;6.90;99.90
12948;DHT22;6539;49.476;8.484;2024-02-23T03:23:31;6.90;99.90
12948;DHT22;6539;49.476;8.484;2024-02-23T03:30:19;6.90;99.90
12948;DHT22;6539;49.476;8.484;2024-02-23T03:33:05;6.90;99.90
12948;DHT22;6539;49.476;8.484;2024-02-23T03:35:54;6.80;99.90
12948;DHT22;6539;49.476;8.484;2024-02-23T03:38:41;6.80;99.90
12948;DHT22;6539;49.476;8.484;2024-02-23T03:41:27;6.80;99.90
12948;DHT22;6539;49.476;8.484;2024-02-23T03:44:13;6.90;99.90
12948;DHT22;6539;49.476;8.484;2024-02-23T03:46:59;6.90;99.90
12948;DHT22;6539;49.476;8.484;2024-02-23T03:49:45;7.00;99.90
12948;DHT22;6539;49.476;8.484;2024-02-23T03:52:31;6.90;99.90
12948;DHT22;6539;49.476;8.484;2024-02-23T03:55:17;6.90;99.90
12948;DHT22;6539;49.476;8.484;2024-02-23T03:58:03;6.80;99.90
12948;DHT22;6539;49.476;8.484;2024-02-23T04:00:50;6.80;99.90
12948;DHT22;6539;49.476;8.484;2024-02-23T04:03:39;6.70;99.90
12948;DHT22;6539;49.476;8.484;2024-02-23T04:06:26;6.70;99.90
12948;DHT22;6539;49.476;8.484;2024-02-23T04:09:14;6.60;99.90
12948;DHT22;6539;49.476;8.484;2024-02-23T04:12:00;6.60;99.90
12948;DHT22;6539;49.476;8.484;2024-02-23T04:14:46;6.50;99.90
12948;DHT22;6539;49.476;8.484;2024-02-23T04:17:33;6.50;99.90
12948;DHT22;6539;49.476;8.484;2024-02-23T04:20:19;6.50;99.90
12948;DHT22;6539;49.476;8.484;2024-02-23T04:23:05;6.50;99.90
12948;DHT22;6539;49.476;8.484;2024-02-23T04:25:53;6.40;99.90
12948;DHT22;6539;49.476;8.484;2024-02-23T04:28:42;6.40;99.90
12948;DHT22;6539;49.476;8.484;2024-02-23T04:31:28;6.40;99.90
12948;DHT22;6539;49.476;8.484;2024-02-23T04:34:17;6.50;99.90
12948;DHT22;6539;49.476;8.484;2024-02-23T04:37:05;6.50;99.90
12948;DHT22;6539;49.476;8.484;2024-02-23T04:39:51;6.50;99.90
12948;DHT22;6539;49.476;8.484;2024-02-23T04:42:37;6.60;99.90
12948;DHT22;6539;49.476;8.484;2024-02-23T04:45:24;6.60;99.90
12948;DHT22;6539;49.476;8.484;2024-02-23T04:48:10;6.60;99.90
12948;DHT22;6539;49.476;8.484;2024-02-23T04:51:01;6.70;99.90
12948;DHT22;6539;49.476;8.484;2024-02-23T04:53:48;6.70;99.90
12948;DHT22;6539;49.476;8.484;2024-02-23T04:56:34;6.70;99.90
12948;DHT22;6539;49.476;8.484;2024-02-23T04:59:20;6.70;99.90
12948;DHT22;6539;49.476;8.484;2024-02-23T05:02:06;6.70;99.90
12948;DHT22;6539;49.476;8.484;2024-02-23T05:04:52;6.80;99.90
12948;DHT22;6539;49.476;8.484;2024-02-23T05:07:38;6.80;99.90
12948;DHT22;6539;49.476;8.484;2024-02-23T05:10:24;6.80;99.90
12948;DHT22;6539;49.476;8.484;2024-02-23T05:13:13;6.80;99.90
12948;DHT22;6539;49.476;8.484;2024-02-23T05:16:00;6.80;99.90
12948;DHT22;6539;49.476;8.484;2024-02-23T05:18:49;6.80;99.90
12948;DHT22;6539;49.476;8.484;2024-02-23T05:21:37;6.90;99.90
12948;DHT22;6539;49.476;8.484;2024-02-23T05:24:23;6.90;99.90
12948;DHT22;6539;49.476;8.484;2024-02-23T05:27:12;6.90;99.90
12948;DHT22;6539;49.476;8.484;2024-02-23T05:29:58;6.90;99.90
12948;DHT22;6539;49.476;8.484;2024-02-23T05:32:44;6.80;99.90
12948;DHT22;6539;49.476;8.484;2024-02-23T05:35:30;6.80;99.90
12948;DHT22;6539;49.476;8.484;2024-02-23T05:38:16;6.80;99.90
12948;DHT22;6539;49.476;8.484;2024-02-23T05:41:02;6.90;99.90
12948;DHT22;6539;49.476;8.484;2024-02-23T05:43:50;6.90;99.90
12948;DHT22;6539;49.476;8.484;2024-02-23T05:46:39;6.90;99.90
12948;DHT22;6539;49.476;8.484;2024-02-23T05:49:28;6.90;99.90
12948;DHT22;6539;49.476;8.484;2024-02-23T05:52:14;6.90;99.90
12948;DHT22;6539;49.476;8.484;2024-02-23T05:55:01;6.90;99.90
12948;DHT22;6539;49.476;8.484;2024-02-23T05:57:47;6.90;99.90
12948;DHT22;6539;49.476;8.484;2024-02-23T06:00:33;6.90;99.90
12948;DHT22;6539;49.476;8.484;2024-02-23T06:03:22;6.90;99.90
12948;DHT22;6539;49.476;8.484;2024-02-23T06:06:10;7.00;99.90
12948;DHT22;6539;49.476;8.484;2024-02-23T06:08:56;7.00;99.90
12948;DHT22;6539;49.476;8.484;2024-02-23T06:11:48;7.10;99.90
12948;DHT22;6539;49.476;8.484;2024-02-23T06:14:36;7.10;99.90
12948;DHT22;6539;49.476;8.484;2024-02-23T06:17:22;7.10;99.90
12948;DHT22;6539;49.476;8.484;2024-02-23T06:20:14;7.10;99.90
12948;DHT22;6539;49.476;8.484;2024-02-23T06:23:02;7.20;99.90
12948;DHT22;6539;49.476;8.484;2024-02-23T06:25:50;7.10;99.90
12948;DHT22;6539;49.476;8.484;2024-02-23T06:28:41;7.10;99.90
12948;DHT22;6539;49.476;8.484;2024-02-23T06:31:30;7.10;99.90
12948;DHT22;6539;49.476;8.484;2024-02-23T06:34:18;7.00;99.90
12948;DHT22;6539;49.476;8.484;2024-02-23T06:37:04;7.10;99.90
12948;DHT22;6539;49.476;8.484;2024-02-23T06:39:51;7.10;99.90
12948;DHT22;6539;49.476;8.484;2024-02-23T06:42:42;7.00;99.90
12948;DHT22;6539;49.476;8.484;2024-02-23T06:45:30;7.00;99.90
12948;DHT22;6539;49.476;8.484;2024-02-23T06:48:16;7.00;99.90
12948;DHT22;6539;49.476;8.484;2024-02-23T06:51:06;7.00;99.90
12948;DHT22;6539;49.476;8.484;2024-02-23T06:54:00;6.90;99.90
12948;DHT22;6539;49.476;8.484;2024-02-23T06:56:46;6.90;99.90
12948;DHT22;6539;49.476;8.484;2024-02-23T06:59:32;6.90;99.90
12948;DHT22;6539;49.476;8.484;2024-02-23T07:02:21;6.90;99.90
12948;DHT22;6539;49.476;8.484;2024-02-23T07:05:07;6.80;99.90
12948;DHT22;6539;49.476;8.484;2024-02-23T07:07:54;6.80;99.90
12948;DHT22;6539;49.476;8.484;2024-02-23T07:10:40;6.80;99.90
12948;DHT22;6539;49.476;8.484;2024-02-23T07:13:28;6.80;99.90
12948;DHT22;6539;49.476;8.484;2024-02-23T07:16:15;6.80;99.90
12948;DHT22;6539;49.476;8.484;2024-02-23T07:19:04;6.80;99.90
12948;DHT22;6539;49.476;8.484;2024-02-23T07:21:53;6.80;99.90
12948;DHT22;6539;49.476;8.484;2024-02-23T07:24:42;6.80;99.90
12948;DHT22;6539;49.476;8.484;2024-02-23T07:27:33;6.70;99.90
12948;DHT22;6539;49.476;8.484;2024-02-23T07:30:19;6.70;99.90
12948;DHT22;6539;49.476;8.484;2024-02-23T07:33:05;6.70;99.90
12948;DHT22;6539;49.476;8.484;2024-02-23T07:35:51;6.70;99.90
12948;DHT22;6539;49.476;8.484;2024-02-23T07:38:37;6.70;99.90
12948;DHT22;6539;49.476;8.484;2024-02-23T07:41:26;6.70;99.90
12948;DHT22;6539;49.476;8.484;2024-02-23T07:44:12;6.70;99.90
12948;DHT22;6539;49.476;8.484;2024-02-23T07:46:58;6.70;99.90
12948;DHT22;6539;49.476;8.484;2024-02-23T07:49:45;6.70;99.90
12948;DHT22;6539;49.476;8.484;2024-02-23T07:52:34;6.80;99.90
12948;DHT22;6539;49.476;8.484;2024-02-23T07:55:22;6.80;99.90
12948;DHT22;6539;49.476;8.484;2024-02-23T07:58:08;6.90;99.90
12948;DHT22;6539;49.476;8.484;2024-02-23T08:00:54;7.10;99.90
12948;DHT22;6539;49.476;8.484;2024-02-23T08:03:41;7.20;99.90
12948;DHT22;6539;49.476;8.484;2024-02-23T08:06:30;7.20;99.90
12948;DHT22;6539;49.476;8.484;2024-02-23T08:09:16;7.30;99.90
12948;DHT22;6539;49.476;8.484;2024-02-23T08:12:03;7.40;99.90
12948;DHT22;6539;49.476;8.484;2024-02-23T08:14:52;7.30;99.90
12948;DHT22;6539;49.476;8.484;2024-02-23T08:17:40;7.30;99.90
12948;DHT22;6539;49.476;8.484;2024-02-23T08:20:27;7.30;99.90
12948;DHT22;6539;49.476;8.484;2024-02-23T08:23:13;7.30;99.90
12948;DHT22;6539;49.476;8.484;2024-02-23T08:25:59;7.30;99.90
12948;DHT22;6539;49.476;8.484;2024-02-23T08:28:48;7.40;99.90
12948;DHT22;6539;49.476;8.484;2024-02-23T08:31:34;7.30;99.90
12948;DHT22;6539;49.476;8.484;2024-02-23T08:34:20;7.40;99.90
12948;DHT22;6539;49.476;8.484;2024-02-23T08:37:08;7.50;99.90
12948;DHT22;6539;49.476;8.484;2024-02-23T08:40:00;7.50;99.90
12948;DHT22;6539;49.476;8.484;2024-02-23T08:42:46;7.60;99.90
12948;DHT22;6539;49.476;8.484;2024-02-23T08:45:33;7.60;99.90
12948;DHT22;6539;49.476;8.484;2024-02-23T08:48:21;7.60;99.90
12948;DHT22;6539;49.476;8.484;2024-02-23T08:51:07;7.70;99.90
12948;DHT22;6539;49.476;8.484;2024-02-23T08:53:53;7.70;99.90
12948;DHT22;6539;49.476;8.484;2024-02-23T08:56:42;7.80;99.90
12948;DHT22;6539;49.476;8.484;2024-02-23T08:59:29;7.90;99.90
12948;DHT22;6539;49.476;8.484;2024-02-23T09:02:15;7.90;99.90
12948;DHT22;6539;49.476;8.484;2024-02-23T09:05:05;8.00;99.90
12948;DHT22;6539;49.476;8.484;2024-02-23T09:07:51;8.10;99.90
12948;DHT22;6539;49.476;8.484;2024-02-23T09:10:37;8.10;99.90
12948;DHT22;6539;49.476;8.484;2024-02-23T09:13:29;8.10;99.90
12948;DHT22;6539;49.476;8.484;2024-02-23T09:16:17;8.10;99.90
12948;DHT22;6539;49.476;8.484;2024-02-23T09:19:04;8.10;99.90
12948;DHT22;6539;49.476;8.484;2024-02-23T09:21:50;8.10;99.90
12948;DHT22;6539;49.476;8.484;2024-02-23T09:24:39;8.00;99.90
12948;DHT22;6539;49.476;8.484;2024-02-23T09:27:28;8.10;99.90
12948;DHT22;6539;49.476;8.484;2024-02-23T09:30:14;8.20;99.90
12948;DHT22;6539;49.476;8.484;2024-02-23T09:33:00;8.30;99.90
12948;DHT22;6539;49.476;8.484;2024-02-23T09:35:49;8.40;99.90
12948;DHT22;6539;49.476;8.484;2024-02-23T09:38:38;8.50;99.90
12948;DHT22;6539;49.476;8.484;2024-02-23T09:41:25;8.70;99.90
12948;DHT22;6539;49.476;8.484;2024-02-23T09:44:12;8.80;99.90
12948;DHT22;6539;49.476;8.484;2024-02-23T09:47:01;9.00;99.90
12948;DHT22;6539;49.476;8.484;2024-02-23T09:49:56;9.30;99.90
12948;DHT22;6539;49.476;8.484;2024-02-23T09:52:42;9.50;99.90
12948;DHT22;6539;49.476;8.484;2024-02-23T09:55:28;9.60;99.90
12948;DHT22;6539;49.476;8.484;2024-02-23T09:58:21;9.80;99.90
12948;DHT22;6539;49.476;8.484;2024-02-23T10:01:07;9.90;99.90
12948;DHT22;6539;49.476;8.484;2024-02-23T10:04:00;10.10;99.90
12948;DHT22;6539;49.476;8.484;2024-02-23T10:06:50;10.00;99.90
12948;DHT22;6539;49.476;8.484;2024-02-23T10:09:38;9.90;99.90
12948;DHT22;6539;49.476;8.484;2024-02-23T10:12:24;9.80;99.90
12948;DHT22;6539;49.476;8.484;2024-02-23T10:15:10;10.10;99.90
12948;DHT22;6539;49.476;8.484;2024-02-23T10:17:56;10.80;99.90
12948;DHT22;6539;49.476;8.484;2024-02-23T10:20:42;10.90;99.90
12948;DHT22;6539;49.476;8.484;2024-02-23T10:23:29;10.90;99.90
12948;DHT22;6539;49.476;8.484;2024-02-23T10:26:15;11.00;99.90
12948;DHT22;6539;49.476;8.484;2024-02-23T10:29:06;10.90;99.90
12948;DHT22;6539;49.476;8.484;2024-02-23T10:31:57;11.10;99.90
12948;DHT22;6539;49.476;8.484;2024-02-23T10:34:44;11.50;99.90
12948;DHT22;6539;49.476;8.484;2024-02-23T10:37:36;11.30;99.90
12948;DHT22;6539;49.476;8.484;2024-02-23T10:40:24;11.40;99.90
12948;DHT22;6539;49.476;8.484;2024-02-23T10:43:17;11.60;99.90
12948;DHT22;6539;49.476;8.484;2024-02-23T10:46:07;11.30;99.90
12948;DHT22;6539;49.476;8.484;2024-02-23T10:48:59;11.20;99.90
12948;DHT22;6539;49.476;8.484;2024-02-23T10:51:47;11.20;99.90
12948;DHT22;6539;49.476;8.484;2024-02-23T10:54:38;11.00;99.90
12948;DHT22;6539;49.476;8.484;2024-02-23T10:57:26;11.00;99.90
12948;DHT22;6539;49.476;8.484;2024-02-23T11:00:14;10.80;99.90
12948;DHT22;6539;49.476;8.484;2024-02-23T11:03:01;10.40;99.90
12948;DHT22;6539;49.476;8.484;2024-02-23T11:05:49;10.10;99.90
12948;DHT22;6539;49.476;8.484;2024-02-23T11:08:41;10.30;99.90
12948;DHT22;6539;49.476;8.484;2024-02-23T11:11:32;10.60;99.90
12948;DHT22;6539;49.476;8.484;2024-02-23T11:14:30;10.80;99.90
12948;DHT22;6539;49.476;8.484;2024-02-23T11:17:22;10.60;99.90
12948;DHT22;6539;49.476;8.484;2024-02-23T11:20:15;10.40;99.90
12948;DHT22;6539;49.476;8.484;2024-02-23T11:23:01;10.40;99.90
12948;DHT22;6539;49.476;8.484;2024-02-23T11:26:11;10.30;99.90
12948;DHT22;6539;49.476;8.484;2024-02-23T11:29:10;10.30;99.90
12948;DHT22;6539;49.476;8.484;2024-02-23T11:31:58;10.10;99.90
12948;DHT22;6539;49.476;8.484;2024-02-23T11:34:58;10.20;99.90
12948;DHT22;6539;49.476;8.484;2024-02-23T11:37:52;10.10;99.90
12948;DHT22;6539;49.476;8.484;2024-02-23T11:40:53;10.20;99.90
12948;DHT22;6539;49.476;8.484;2024-02-23T11:43:41;10.30;99.90
12948;DHT22;6539;49.476;8.484;2024-02-23T11:46:33;10.70;99.90
12948;DHT22;6539;49.476;8.484;2024-02-23T11:49:19;10.80;99.90
12948;DHT22;6539;49.476;8.484;2024-02-23T11:52:05;10.60;99.90
12948;DHT22;6539;49.476;8.484;2024-02-23T11:54:52;10.40;99.90
12948;DHT22;6539;49.476;8.484;2024-02-23T11:57:40;10.30;99.90
12948;DHT22;6539;49.476;8.484;2024-02-23T12:00:29;10.20;99.90
12948;DHT22;6539;49.476;8.484;2024-02-23T12:03:16;10.20;99.90
12948;DHT22;6539;49.476;8.484;2024-02-23T12:06:03;10.20;99.90
12948;DHT22;6539;49.476;8.484;2024-02-23T12:08:52;10.10;99.90
12948;DHT22;6539;49.476;8.484;2024-02-23T12:11:39;10.10;99.90
12948;DHT22;6539;49.476;8.484;2024-02-23T12:14:25;10.10;99.90
12948;DHT22;6539;49.476;8.484;2024-02-23T12:17:16;10.10;99.90
12948;DHT22;6539;49.476;8.484;2024-02-23T12:20:05;10.20;99.90
12948;DHT22;6539;49.476;8.484;2024-02-23T12:22:55;10.10;99.90
12948;DHT22;6539;49.476;8.484;2024-02-23T12:25:59;10.10;99.90
12948;DHT22;6539;49.476;8.484;2024-02-23T12:28:46;10.00;99.90
12948;DHT22;6539;49.476;8.484;2024-02-23T12:31:37;9.80;99.90
12948;DHT22;6539;49.476;8.484;2024-02-23T12:34:25;9.30;99.90
12948;DHT22;6539;49.476;8.484;2024-02-23T12:37:14;9.20;99.90
12948;DHT22;6539;49.476;8.484;2024-02-23T12:40:01;10.10;99.90
12948;DHT22;6539;49.476;8.484;2024-02-23T12:42:48;11.10;99.90
12948;DHT22;6539;49.476;8.484;2024-02-23T12:45:36;11.70;99.90
12948;DHT22;6539;49.476;8.484;2024-02-23T12:48:27;11.90;99.90
12948;DHT22;6539;49.476;8.484;2024-02-23T12:51:13;11.80;99.90
12948;DHT22;6539;49.476;8.484;2024-02-23T12:54:00;12.10;99.90
12948;DHT22;6539;49.476;8.484;2024-02-23T12:56:46;11.90;99.90
12948;DHT22;6539;49.476;8.484;2024-02-23T12:59:35;12.00;99.90
12948;DHT22;6539;49.476;8.484;2024-02-23T13:02:21;11.90;99.90
12948;DHT22;6539;49.476;8.484;2024-02-23T13:05:09;12.10;99.90
12948;DHT22;6539;49.476;8.484;2024-02-23T13:07:55;12.50;99.90
12948;DHT22;6539;49.476;8.484;2024-02-23T13:10:42;12.50;99.90
12948;DHT22;6539;49.476;8.484;2024-02-23T13:13:30;11.90;99.90
12948;DHT22;6539;49.476;8.484;2024-02-23T13:16:19;11.40;99.90
12948;DHT22;6539;49.476;8.484;2024-02-23T13:19:05;11.20;99.90
12948;DHT22;6539;49.476;8.484;2024-02-23T13:21:52;11.10;99.90
12948;DHT22;6539;49.476;8.484;2024-02-23T13:24:40;11.20;99.90
12948;DHT22;6539;49.476;8.484;2024-02-23T13:27:26;11.20;99.90
12948;DHT22;6539;49.476;8.484;2024-02-23T13:30:17;11.40;99.90
12948;DHT22;6539;49.476;8.484;2024-02-23T13:33:04;12.30;99.90
12948;DHT22;6539;49.476;8.484;2024-02-23T13:35:54;12.20;99.90
12948;DHT22;6539;49.476;8.484;2024-02-23T13:38:43;11.70;99.90
12948;DHT22;6539;49.476;8.484;2024-02-23T13:41:29;11.10;99.90
12948;DHT22;6539;49.476;8.484;2024-02-23T13:44:15;11.00;99.90
12948;DHT22;6539;49.476;8.484;2024-02-23T13:47:01;10.90;99.90
12948;DHT22;6539;49.476;8.484;2024-02-23T13:49:47;10.90;99.90
12948;DHT22;6539;49.476;8.484;2024-02-23T13:52:37;10.80;99.90
12948;DHT22;6539;49.476;8.484;2024-02-23T13:55:23;10.70;99.90
12948;DHT22;6539;49.476;8.484;2024-02-23T13:58:10;10.50;99.90
12948;DHT22;6539;49.476;8.484;2024-02-23T14:00:56;10.30;99.90
12948;DHT22;6539;49.476;8.484;2024-02-23T14:03:42;10.30;99.90
12948;DHT22;6539;49.476;8.484;2024-02-23T14:06:31;10.50;99.90
12948;DHT22;6539;49.476;8.484;2024-02-23T14:09:19;10.50;99.90
12948;DHT22;6539;49.476;8.484;2024-02-23T14:12:05;10.30;99.90
12948;DHT22;6539;49.476;8.484;2024-02-23T14:14:52;10.20;99.90
12948;DHT22;6539;49.476;8.484;2024-02-23T14:17:38;10.10;99.90
12948;DHT22;6539;49.476;8.484;2024-02-23T14:20:24;10.00;99.90
12948;DHT22;6539;49.476;8.484;2024-02-23T14:23:13;10.00;99.90
12948;DHT22;6539;49.476;8.484;2024-02-23T14:26:00;10.10;99.90
12948;DHT22;6539;49.476;8.484;2024-02-23T14:28:49;9.80;99.90
12948;DHT22;6539;49.476;8.484;2024-02-23T14:31:38;9.50;99.90
12948;DHT22;6539;49.476;8.484;2024-02-23T14:34:27;9.60;99.90
12948;DHT22;6539;49.476;8.484;2024-02-23T14:37:16;9.60;99.90
12948;DHT22;6539;49.476;8.484;2024-02-23T14:40:07;9.80;99.90
12948;DHT22;6539;49.476;8.484;2024-02-23T14:42:57;9.90;99.90
12948;DHT22;6539;49.476;8.484;2024-02-23T14:45:44;9.90;99.90
12948;DHT22;6539;49.476;8.484;2024-02-23T14:48:31;9.80;99.90
12948;DHT22;6539;49.476;8.484;2024-02-23T14:51:19;9.70;99.90
12948;DHT22;6539;49.476;8.484;2024-02-23T14:54:05;10.00;99.90
12948;DHT22;6539;49.476;8.484;2024-02-23T14:56:51;10.10;99.90
12948;DHT22;6539;49.476;8.484;2024-02-23T14:59:37;10.10;99.90
12948;DHT22;6539;49.476;8.484;2024-02-23T15:02:32;10.10;99.90
12948;DHT22;6539;49.476;8.484;2024-02-23T15:05:18;9.90;99.90
12948;DHT22;6539;49.476;8.484;2024-02-23T15:08:05;9.90;99.90
12948;DHT22;6539;49.476;8.484;2024-02-23T15:10:53;9.80;99.90
12948;DHT22;6539;49.476;8.484;2024-02-23T15:13:40;9.80;99.90
12948;DHT22;6539;49.476;8.484;2024-02-23T15:16:27;9.80;99.90
12948;DHT22;6539;49.476;8.484;2024-02-23T15:19:14;9.90;99.90
12948;DHT22;6539;49.476;8.484;2024-02-23T15:22:02;9.80;99.90
12948;DHT22;6539;49.476;8.484;2024-02-23T15:24:53;10.00;99.90
12948;DHT22;6539;49.476;8.484;2024-02-23T15:27:39;10.00;99.90
12948;DHT22;6539;49.476;8.484;2024-02-23T15:30:30;10.20;99.90
12948;DHT22;6539;49.476;8.484;2024-02-23T15:33:20;10.20;99.90
12948;DHT22;6539;49.476;8.484;2024-02-23T15:36:09;10.30;99.90
12948;DHT22;6539;49.476;8.484;2024-02-23T15:38:55;10.50;99.90
12948;DHT22;6539;49.476;8.484;2024-02-23T15:41:47;10.50;99.90
12948;DHT22;6539;49.476;8.484;2024-02-23T15:44:33;10.50;99.90
12948;DHT22;6539;49.476;8.484;2024-02-23T15:47:22;10.30;99.90
12948;DHT22;6539;49.476;8.484;2024-02-23T15:50:09;10.30;99.90
12948;DHT22;6539;49.476;8.484;2024-02-23T15:52:58;10.30;99.90
12948;DHT22;6539;49.476;8.484;2024-02-23T15:55:44;10.20;99.90
12948;DHT22;6539;49.476;8.484;2024-02-23T15:58:33;10.20;99.90
12948;DHT22;6539;49.476;8.484;2024-02-23T16:01:22;10.10;99.90
12948;DHT22;6539;49.476;8.484;2024-02-23T16:04:08;10.20;99.90
12948;DHT22;6539;49.476;8.484;2024-02-23T16:06:58;10.20;99.90
12948;DHT22;6539;49.476;8.484;2024-02-23T16:09:44;10.20;99.90
12948;DHT22;6539;49.476;8.484;2024-02-23T16:12:32;10.10;99.90
12948;DHT22;6539;49.476;8.484;2024-02-23T16:15:21;10.10;99.90
12948;DHT22;6539;49.476;8.484;2024-02-23T16:18:07;10.10;99.90
12948;DHT22;6539;49.476;8.484;2024-02-23T16:20:53;10.00;99.90
12948;DHT22;6539;49.476;8.484;2024-02-23T16:23:40;10.10;99.90
12948;DHT22;6539;49.476;8.484;2024-02-23T16:26:29;10.10;99.90
12948;DHT22;6539;49.476;8.484;2024-02-23T16:29:20;10.00;99.90
12948;DHT22;6539;49.476;8.484;2024-02-23T16:32:06;10.00;99.90
12948;DHT22;6539;49.476;8.484;2024-02-23T16:34:55;10.10;99.90
12948;DHT22;6539;49.476;8.484;2024-02-23T16:37:43;10.00;99.90
12948;DHT22;6539;49.476;8.484;2024-02-23T16:40:30;10.00;99.90
12948;DHT22;6539;49.476;8.484;2024-02-23T16:43:18;10.00;99.90
12948;DHT22;6539;49.476;8.484;2024-02-23T16:46:04;9.90;99.90
12948;DHT22;6539;49.476;8.484;2024-02-23T16:48:52;9.80;99.90
12948;DHT22;6539;49.476;8.484;2024-02-23T16:51:39;9.80;99.90
12948;DHT22;6539;49.476;8.484;2024-02-23T16:54:28;9.80;99.90
12948;DHT22;6539;49.476;8.484;2024-02-23T16:57:14;9.80;99.90
12948;DHT22;6539;49.476;8.484;2024-02-23T17:00:03;9.90;99.90
12948;DHT22;6539;49.476;8.484;2024-02-23T17:02:50;9.80;99.90
12948;DHT22;6539;49.476;8.484;2024-02-23T17:05:40;9.80;99.90
12948;DHT22;6539;49.476;8.484;2024-02-23T17:08:26;9.80;99.90
12948;DHT22;6539;49.476;8.484;2024-02-23T17:11:14;9.80;99.90
12948;DHT22;6539;49.476;8.484;2024-02-23T17:14:02;9.70;99.90
12948;DHT22;6539;49.476;8.484;2024-02-23T17:16:49;9.70;99.90
12948;DHT22;6539;49.476;8.484;2024-02-23T17:19:35;9.70;99.90
12948;DHT22;6539;49.476;8.484;2024-02-23T17:22:21;9.70;99.90
12948;DHT22;6539;49.476;8.484;2024-02-23T17:25:10;9.70;99.90
12948;DHT22;6539;49.476;8.484;2024-02-23T17:27:59;9.70;99.90
12948;DHT22;6539;49.476;8.484;2024-02-23T17:30:45;9.70;99.90
12948;DHT22;6539;49.476;8.484;2024-02-23T17:33:33;9.60;99.90
12948;DHT22;6539;49.476;8.484;2024-02-23T17:36:19;9.60;99.90
12948;DHT22;6539;49.476;8.484;2024-02-23T17:39:10;9.50;99.90
12948;DHT22;6539;49.476;8.484;2024-02-23T17:42:01;9.50;99.90
12948;DHT22;6539;49.476;8.484;2024-02-23T17:44:49;9.40;99.90
12948;DHT22;6539;49.476;8.484;2024-02-23T17:47:37;9.40;99.90
12948;DHT22;6539;49.476;8.484;2024-02-23T17:50:23;9.40;99.90
12948;DHT22;6539;49.476;8.484;2024-02-23T17:53:12;9.40;99.90
12948;DHT22;6539;49.476;8.484;2024-02-23T17:55:58;9.30;99.90
12948;DHT22;6539;49.476;8.484;2024-02-23T17:58:45;9.40;99.90
12948;DHT22;6539;49.476;8.484;2024-02-23T18:01:32;9.30;99.90
12948;DHT22;6539;49.476;8.484;2024-02-23T18:04:20;9.30;99.90
12948;DHT22;6539;49.476;8.484;2024-02-23T18:07:09;9.40;99.90
12948;DHT22;6539;49.476;8.484;2024-02-23T18:09:57;9.40;99.90
12948;DHT22;6539;49.476;8.484;2024-02-23T18:12:48;9.30;99.90
12948;DHT22;6539;49.476;8.484;2024-02-23T18:15:34;9.30;99.90